TimeEST,TemperatureF,Dew PointF,Humidity,Sea Level PressureIn,VisibilityMPH,Wind Direction,Wind SpeedMPH,Gust SpeedMPH,PrecipitationIn,Events,Conditions,WindDirDegrees,DateUTC
12:54 AM,45.0,30.9,58,30.14,10.0,NNE,9.2,-,N/A,,Clear,20,2012-12-12 05:54:00
1:54 AM,44.1,30.0,58,30.16,10.0,NNE,8.1,-,N/A,,Clear,20,2012-12-12 06:54:00
2:54 AM,43.0,28.9,58,30.16,10.0,NNE,8.1,-,N/A,,Clear,20,2012-12-12 07:54:00
3:54 AM,43.0,28.9,58,30.18,10.0,NNE,8.1,-,N/A,,Clear,20,2012-12-12 08:54:00
4:54 AM,43.0,28.9,58,30.19,10.0,NNE,9.2,-,N/A,,Clear,30,2012-12-12 09:54:00
5:54 AM,43.0,30.0,60,30.20,10.0,NNE,8.1,-,N/A,,Mostly Cloudy,30,2012-12-12 10:54:00
6:54 AM,44.1,30.9,60,30.20,10.0,NE,6.9,-,N/A,,Overcast,40,2012-12-12 11:54:00
7:54 AM,44.1,30.9,60,30.24,10.0,NNE,9.2,-,N/A,,Overcast,30,2012-12-12 12:54:00
8:54 AM,44.1,32.0,63,30.25,10.0,Variable,6.9,-,N/A,,Overcast,0,2012-12-12 13:54:00
9:54 AM,45.0,33.1,63,30.26,10.0,NE,8.1,-,N/A,,Overcast,50,2012-12-12 14:54:00
10:54 AM,46.9,34.0,61,30.27,10.0,NNE,8.1,-,N/A,,Overcast,30,2012-12-12 15:54:00
11:54 AM,46.9,34.0,61,30.27,10.0,ENE,6.9,-,N/A,,Overcast,70,2012-12-12 16:54:00
12:54 PM,46.0,34.0,63,30.27,10.0,NE,6.9,-,N/A,,Overcast,40,2012-12-12 17:54:00
1:54 PM,44.1,37.0,76,30.23,7.0,Variable,4.6,-,0.02,Rain,Light Rain,0,2012-12-12 18:54:00
2:54 PM,43.0,39.9,89,30.23,3.0,NE,5.8,-,0.07,Rain,Light Rain,40,2012-12-12 19:54:00
3:54 PM,43.0,41.0,93,30.27,4.0,NE,4.6,-,0.02,Rain,Light Rain,40,2012-12-12 20:54:00
4:54 PM,42.1,39.0,89,30.25,8.0,ENE,6.9,-,0.00,,Overcast,60,2012-12-12 21:54:00
5:54 PM,43.0,39.9,89,30.28,9.0,Variable,4.6,-,N/A,,Overcast,0,2012-12-12 22:54:00
7:14 PM,43.0,37.9,82,30.28,10.0,Variable,5.8,-,N/A,,Overcast,0,2012-12-13 00:14:00
7:54 PM,43.0,35.1,74,30.28,10.0,Variable,6.9,-,N/A,,Overcast,0,2012-12-13 00:54:00
8:54 PM,43.0,34.0,71,30.30,10.0,NE,9.2,-,0.00,Rain,Light Rain,50,2012-12-13 01:54:00
9:54 PM,43.0,34.0,71,30.29,10.0,NE,9.2,17.3,0.00,,Overcast,40,2012-12-13 02:54:00
10:54 PM,43.0,33.1,68,30.28,10.0,NE,10.4,20.7,N/A,,Overcast,50,2012-12-13 03:54:00
11:15 PM,43.0,34.0,71,30.29,10.0,NE,12.7,25.3,N/A,,Overcast,50,2012-12-13 04:15:00
11:54 PM,42.1,35.1,76,30.33,7.0,ENE,4.6,-,0.00,Rain,Light Rain,70,2012-12-13 04:54:00